sensor_id;sensor_type;location;lat;lon;timestamp;P1;durP1;ratioP1;P2;durP2;ratioP2
26050;SDS011;13825;53.496;10.020;2023-11-19T00:01:57;7.53;;;4.53;;
26050;SDS011;13825;53.496;10.020;2023-11-19T00:04:25;5.60;;;3.73;;
26050;SDS011;13825;53.496;10.020;2023-11-19T00:06:51;6.00;;;3.80;;
26050;SDS011;13825;53.496;10.020;2023-11-19T00:09:18;7.63;;;4.20;;
26050;SDS011;13825;53.496;10.020;2023-11-19T00:11:47;8.00;;;4.30;;
26050;SDS011;13825;53.496;10.020;2023-11-19T00:14:13;5.87;;;3.77;;
26050;SDS011;13825;53.496;10.020;2023-11-19T00:16:42;5.37;;;3.53;;
26050;SDS011;13825;53.496;10.020;2023-11-19T00:19:09;7.20;;;4.10;;
26050;SDS011;13825;53.496;10.020;2023-11-19T00:21:36;5.90;;;3.40;;
26050;SDS011;13825;53.496;10.020;2023-11-19T00:24:04;6.60;;;3.50;;
26050;SDS011;13825;53.496;10.020;2023-11-19T00:26:31;4.80;;;3.77;;
26050;SDS011;13825;53.496;10.020;2023-11-19T00:29:00;4.40;;;3.20;;
26050;SDS011;13825;53.496;10.020;2023-11-19T00:31:27;5.00;;;3.20;;
26050;SDS011;13825;53.496;10.020;2023-11-19T00:33:54;6.10;;;3.40;;
26050;SDS011;13825;53.496;10.020;2023-11-19T00:36:21;6.77;;;3.80;;
26050;SDS011;13825;53.496;10.020;2023-11-19T00:38:49;4.23;;;3.37;;
26050;SDS011;13825;53.496;10.020;2023-11-19T00:41:17;4.70;;;3.37;;
26050;SDS011;13825;53.496;10.020;2023-11-19T00:43:44;5.53;;;3.27;;
26050;SDS011;13825;53.496;10.020;2023-11-19T00:46:13;4.70;;;3.10;;
26050;SDS011;13825;53.496;10.020;2023-11-19T00:48:40;5.63;;;3.67;;
26050;SDS011;13825;53.496;10.020;2023-11-19T00:51:07;4.27;;;2.77;;
26050;SDS011;13825;53.496;10.020;2023-11-19T00:53:33;3.93;;;2.93;;
26050;SDS011;13825;53.496;10.020;2023-11-19T00:56:00;4.37;;;2.80;;
26050;SDS011;13825;53.496;10.020;2023-11-19T00:58:27;4.83;;;3.10;;
26050;SDS011;13825;53.496;10.020;2023-11-19T01:00:54;5.07;;;3.13;;
26050;SDS011;13825;53.496;10.020;2023-11-19T01:03:23;3.90;;;2.77;;
26050;SDS011;13825;53.496;10.020;2023-11-19T01:05:50;3.73;;;2.53;;
26050;SDS011;13825;53.496;10.020;2023-11-19T01:08:18;15.33;;;2.83;;
26050;SDS011;13825;53.496;10.020;2023-11-19T01:10:45;3.30;;;2.40;;
26050;SDS011;13825;53.496;10.020;2023-11-19T01:13:12;2.93;;;2.20;;
26050;SDS011;13825;53.496;10.020;2023-11-19T01:15:39;3.00;;;2.23;;
26050;SDS011;13825;53.496;10.020;2023-11-19T01:18:07;3.30;;;2.33;;
26050;SDS011;13825;53.496;10.020;2023-11-19T01:20:36;4.67;;;2.20;;
26050;SDS011;13825;53.496;10.020;2023-11-19T01:23:03;2.60;;;2.03;;
26050;SDS011;13825;53.496;10.020;2023-11-19T01:25:30;3.33;;;1.80;;
26050;SDS011;13825;53.496;10.020;2023-11-19T01:27:57;3.03;;;2.13;;
26050;SDS011;13825;53.496;10.020;2023-11-19T01:30:23;2.17;;;1.90;;
26050;SDS011;13825;53.496;10.020;2023-11-19T01:32:50;3.30;;;2.10;;
26050;SDS011;13825;53.496;10.020;2023-11-19T01:35:17;3.67;;;2.60;;
26050;SDS011;13825;53.496;10.020;2023-11-19T01:37:46;2.43;;;2.10;;
26050;SDS011;13825;53.496;10.020;2023-11-19T01:40:13;1.83;;;1.63;;
26050;SDS011;13825;53.496;10.020;2023-11-19T01:42:41;1.83;;;1.73;;
26050;SDS011;13825;53.496;10.020;2023-11-19T01:45:08;2.40;;;1.90;;
26050;SDS011;13825;53.496;10.020;2023-11-19T01:47:35;2.93;;;1.73;;
26050;SDS011;13825;53.496;10.020;2023-11-19T01:50:03;1.73;;;1.43;;
26050;SDS011;13825;53.496;10.020;2023-11-19T01:52:33;2.10;;;1.43;;
26050;SDS011;13825;53.496;10.020;2023-11-19T01:55:04;1.63;;;1.40;;
26050;SDS011;13825;53.496;10.020;2023-11-19T01:57:33;2.90;;;1.30;;
26050;SDS011;13825;53.496;10.020;2023-11-19T02:00:00;1.30;;;1.20;;
26050;SDS011;13825;53.496;10.020;2023-11-19T02:02:27;2.07;;;1.10;;
26050;SDS011;13825;53.496;10.020;2023-11-19T02:04:54;1.00;;;0.90;;
26050;SDS011;13825;53.496;10.020;2023-11-19T02:07:22;0.83;;;0.83;;
26050;SDS011;13825;53.496;10.020;2023-11-19T02:09:50;1.57;;;1.40;;
26050;SDS011;13825;53.496;10.020;2023-11-19T02:12:19;1.03;;;0.97;;
26050;SDS011;13825;53.496;10.020;2023-11-19T02:14:46;2.10;;;1.00;;
26050;SDS011;13825;53.496;10.020;2023-11-19T02:17:25;1.20;;;1.07;;
26050;SDS011;13825;53.496;10.020;2023-11-19T02:19:53;1.40;;;1.00;;
26050;SDS011;13825;53.496;10.020;2023-11-19T02:22:20;1.23;;;1.00;;
26050;SDS011;13825;53.496;10.020;2023-11-19T02:24:47;1.33;;;1.10;;
26050;SDS011;13825;53.496;10.020;2023-11-19T02:27:20;1.63;;;1.00;;
26050;SDS011;13825;53.496;10.020;2023-11-19T02:29:53;2.37;;;1.07;;
26050;SDS011;13825;53.496;10.020;2023-11-19T02:32:20;1.17;;;1.07;;
26050;SDS011;13825;53.496;10.020;2023-11-19T02:34:47;0.97;;;0.90;;
26050;SDS011;13825;53.496;10.020;2023-11-19T02:37:14;0.90;;;0.90;;
26050;SDS011;13825;53.496;10.020;2023-11-19T02:39:41;0.90;;;0.83;;
26050;SDS011;13825;53.496;10.020;2023-11-19T02:42:08;1.20;;;1.00;;
26050;SDS011;13825;53.496;10.020;2023-11-19T02:44:35;1.37;;;1.00;;
26050;SDS011;13825;53.496;10.020;2023-11-19T02:47:04;1.60;;;1.03;;
26050;SDS011;13825;53.496;10.020;2023-11-19T02:49:33;1.10;;;0.90;;
26050;SDS011;13825;53.496;10.020;2023-11-19T02:52:02;1.20;;;1.10;;
26050;SDS011;13825;53.496;10.020;2023-11-19T02:54:31;0.83;;;0.83;;
26050;SDS011;13825;53.496;10.020;2023-11-19T02:57:00;1.00;;;1.00;;
26050;SDS011;13825;53.496;10.020;2023-11-19T02:59:28;4.50;;;1.00;;
26050;SDS011;13825;53.496;10.020;2023-11-19T03:02:05;1.17;;;1.00;;
26050;SDS011;13825;53.496;10.020;2023-11-19T03:04:32;1.10;;;0.90;;
26050;SDS011;13825;53.496;10.020;2023-11-19T03:06:59;3.63;;;1.20;;
26050;SDS011;13825;53.496;10.020;2023-11-19T03:09:27;1.10;;;1.03;;
26050;SDS011;13825;53.496;10.020;2023-11-19T03:11:54;0.70;;;0.70;;
26050;SDS011;13825;53.496;10.020;2023-11-19T03:14:21;0.73;;;0.73;;
26050;SDS011;13825;53.496;10.020;2023-11-19T03:16:49;0.97;;;0.93;;
26050;SDS011;13825;53.496;10.020;2023-11-19T03:19:17;0.97;;;0.97;;
26050;SDS011;13825;53.496;10.020;2023-11-19T03:21:44;1.10;;;1.00;;
26050;SDS011;13825;53.496;10.020;2023-11-19T03:24:13;0.90;;;0.80;;
26050;SDS011;13825;53.496;10.020;2023-11-19T03:26:42;1.00;;;1.00;;
26050;SDS011;13825;53.496;10.020;2023-11-19T03:29:09;0.93;;;0.93;;
26050;SDS011;13825;53.496;10.020;2023-11-19T03:31:36;2.20;;;1.10;;
26050;SDS011;13825;53.496;10.020;2023-11-19T03:34:07;1.30;;;1.20;;
26050;SDS011;13825;53.496;10.020;2023-11-19T03:36:36;1.07;;;1.07;;
26050;SDS011;13825;53.496;10.020;2023-11-19T03:39:03;1.00;;;0.90;;
26050;SDS011;13825;53.496;10.020;2023-11-19T03:41:30;1.60;;;1.20;;
26050;SDS011;13825;53.496;10.020;2023-11-19T03:43:57;1.23;;;1.13;;
26050;SDS011;13825;53.496;10.020;2023-11-19T03:46:24;1.10;;;1.10;;
26050;SDS011;13825;53.496;10.020;2023-11-19T03:48:50;1.40;;;1.30;;
26050;SDS011;13825;53.496;10.020;2023-11-19T03:51:17;1.43;;;1.07;;
26050;SDS011;13825;53.496;10.020;2023-11-19T03:53:46;1.20;;;1.10;;
26050;SDS011;13825;53.496;10.020;2023-11-19T03:56:13;2.23;;;1.20;;
26050;SDS011;13825;53.496;10.020;2023-11-19T03:58:40;2.27;;;1.50;;
26050;SDS011;13825;53.496;10.020;2023-11-19T04:01:10;1.10;;;1.00;;
26050;SDS011;13825;53.496;10.020;2023-11-19T04:03:39;1.30;;;1.20;;
26050;SDS011;13825;53.496;10.020;2023-11-19T04:06:06;1.30;;;1.20;;
26050;SDS011;13825;53.496;10.020;2023-11-19T04:08:33;1.23;;;1.13;;
26050;SDS011;13825;53.496;10.020;2023-11-19T04:11:01;1.40;;;1.30;;
26050;SDS011;13825;53.496;10.020;2023-11-19T04:13:29;1.00;;;0.90;;
26050;SDS011;13825;53.496;10.020;2023-11-19T04:15:56;1.50;;;1.40;;
26050;SDS011;13825;53.496;10.020;2023-11-19T04:18:22;1.83;;;1.40;;
26050;SDS011;13825;53.496;10.020;2023-11-19T04:20:49;1.40;;;1.30;;
26050;SDS011;13825;53.496;10.020;2023-11-19T04:23:16;1.60;;;1.10;;
26050;SDS011;13825;53.496;10.020;2023-11-19T04:25:43;1.60;;;1.50;;
26050;SDS011;13825;53.496;10.020;2023-11-19T04:28:12;1.93;;;1.40;;
26050;SDS011;13825;53.496;10.020;2023-11-19T04:30:38;1.40;;;1.30;;
26050;SDS011;13825;53.496;10.020;2023-11-19T04:33:05;1.50;;;1.40;;
26050;SDS011;13825;53.496;10.020;2023-11-19T04:35:32;1.93;;;1.67;;
26050;SDS011;13825;53.496;10.020;2023-11-19T04:37:59;2.53;;;1.30;;
26050;SDS011;13825;53.496;10.020;2023-11-19T04:40:26;1.43;;;1.30;;
26050;SDS011;13825;53.496;10.020;2023-11-19T04:42:53;1.87;;;1.70;;
26050;SDS011;13825;53.496;10.020;2023-11-19T04:45:21;1.40;;;1.30;;
26050;SDS011;13825;53.496;10.020;2023-11-19T04:47:48;1.80;;;1.50;;
26050;SDS011;13825;53.496;10.020;2023-11-19T04:50:15;1.87;;;1.50;;
26050;SDS011;13825;53.496;10.020;2023-11-19T04:52:42;2.43;;;1.80;;
26050;SDS011;13825;53.496;10.020;2023-11-19T04:55:10;1.60;;;1.33;;
26050;SDS011;13825;53.496;10.020;2023-11-19T04:57:39;3.03;;;1.53;;
26050;SDS011;13825;53.496;10.020;2023-11-19T05:00:06;2.40;;;1.80;;
26050;SDS011;13825;53.496;10.020;2023-11-19T05:02:37;2.73;;;2.10;;
26050;SDS011;13825;53.496;10.020;2023-11-19T05:05:04;3.57;;;2.10;;
26050;SDS011;13825;53.496;10.020;2023-11-19T05:07:32;2.50;;;1.97;;
26050;SDS011;13825;53.496;10.020;2023-11-19T05:09:59;3.30;;;2.33;;
26050;SDS011;13825;53.496;10.020;2023-11-19T05:12:26;3.27;;;2.30;;
26050;SDS011;13825;53.496;10.020;2023-11-19T05:14:53;5.03;;;2.60;;
26050;SDS011;13825;53.496;10.020;2023-11-19T05:17:20;4.43;;;2.87;;
26050;SDS011;13825;53.496;10.020;2023-11-19T05:19:48;5.43;;;3.63;;
26050;SDS011;13825;53.496;10.020;2023-11-19T05:22:15;5.00;;;3.07;;
26050;SDS011;13825;53.496;10.020;2023-11-19T05:24:42;5.70;;;3.30;;
26050;SDS011;13825;53.496;10.020;2023-11-19T05:27:09;4.47;;;3.43;;
26050;SDS011;13825;53.496;10.020;2023-11-19T05:29:38;8.30;;;4.07;;
26050;SDS011;13825;53.496;10.020;2023-11-19T05:32:06;12.03;;;5.30;;
26050;SDS011;13825;53.496;10.020;2023-11-19T05:34:33;11.73;;;6.60;;
26050;SDS011;13825;53.496;10.020;2023-11-19T05:37:01;15.50;;;6.87;;
26050;SDS011;13825;53.496;10.020;2023-11-19T05:39:30;13.80;;;7.17;;
26050;SDS011;13825;53.496;10.020;2023-11-19T05:41:57;17.23;;;7.20;;
26050;SDS011;13825;53.496;10.020;2023-11-19T05:44:24;9.37;;;6.23;;
26050;SDS011;13825;53.496;10.020;2023-11-19T05:46:51;18.67;;;8.43;;
26050;SDS011;13825;53.496;10.020;2023-11-19T05:49:19;15.43;;;7.13;;
26050;SDS011;13825;53.496;10.020;2023-11-19T05:51:46;12.27;;;6.83;;
26050;SDS011;13825;53.496;10.020;2023-11-19T05:54:15;14.90;;;6.97;;
26050;SDS011;13825;53.496;10.020;2023-11-19T05:56:46;13.90;;;7.10;;
26050;SDS011;13825;53.496;10.020;2023-11-19T05:59:19;15.70;;;7.30;;
26050;SDS011;13825;53.496;10.020;2023-11-19T06:01:48;19.30;;;7.80;;
26050;SDS011;13825;53.496;10.020;2023-11-19T06:04:15;19.47;;;7.90;;
26050;SDS011;13825;53.496;10.020;2023-11-19T06:06:42;16.87;;;7.50;;
26050;SDS011;13825;53.496;10.020;2023-11-19T06:09:08;15.57;;;7.93;;
26050;SDS011;13825;53.496;10.020;2023-11-19T06:11:37;20.57;;;7.13;;
26050;SDS011;13825;53.496;10.020;2023-11-19T06:14:04;15.00;;;6.70;;
26050;SDS011;13825;53.496;10.020;2023-11-19T06:16:31;17.37;;;7.17;;
26050;SDS011;13825;53.496;10.020;2023-11-19T06:18:58;14.63;;;6.33;;
26050;SDS011;13825;53.496;10.020;2023-11-19T06:21:25;18.13;;;6.87;;
26050;SDS011;13825;53.496;10.020;2023-11-19T06:23:52;18.73;;;6.27;;
26050;SDS011;13825;53.496;10.020;2023-11-19T06:26:19;17.30;;;6.43;;
26050;SDS011;13825;53.496;10.020;2023-11-19T06:28:48;16.07;;;6.53;;
26050;SDS011;13825;53.496;10.020;2023-11-19T06:31:15;14.70;;;7.67;;
26050;SDS011;13825;53.496;10.020;2023-11-19T06:33:42;15.43;;;6.67;;
26050;SDS011;13825;53.496;10.020;2023-11-19T06:36:09;14.47;;;6.93;;
26050;SDS011;13825;53.496;10.020;2023-11-19T06:38:36;14.63;;;6.43;;
26050;SDS011;13825;53.496;10.020;2023-11-19T06:41:06;16.30;;;5.87;;
26050;SDS011;13825;53.496;10.020;2023-11-19T06:43:34;16.60;;;6.27;;
26050;SDS011;13825;53.496;10.020;2023-11-19T06:46:03;14.13;;;6.07;;
26050;SDS011;13825;53.496;10.020;2023-11-19T06:48:31;11.47;;;5.83;;
26050;SDS011;13825;53.496;10.020;2023-11-19T06:50:58;16.97;;;6.10;;
26050;SDS011;13825;53.496;10.020;2023-11-19T06:53:26;12.53;;;5.67;;
26050;SDS011;13825;53.496;10.020;2023-11-19T06:55:54;10.07;;;4.93;;
26050;SDS011;13825;53.496;10.020;2023-11-19T06:58:22;17.60;;;5.80;;
26050;SDS011;13825;53.496;10.020;2023-11-19T07:00:49;12.17;;;4.83;;
26050;SDS011;13825;53.496;10.020;2023-11-19T07:03:17;16.23;;;4.73;;
26050;SDS011;13825;53.496;10.020;2023-11-19T07:05:45;11.43;;;5.23;;
26050;SDS011;13825;53.496;10.020;2023-11-19T07:08:13;10.47;;;5.33;;
26050;SDS011;13825;53.496;10.020;2023-11-19T07:10:40;11.07;;;4.87;;
26050;SDS011;13825;53.496;10.020;2023-11-19T07:13:07;16.17;;;5.90;;
26050;SDS011;13825;53.496;10.020;2023-11-19T07:15:34;14.77;;;5.63;;
26050;SDS011;13825;53.496;10.020;2023-11-19T07:18:01;15.93;;;5.23;;
26050;SDS011;13825;53.496;10.020;2023-11-19T07:20:30;9.40;;;4.50;;
26050;SDS011;13825;53.496;10.020;2023-11-19T07:22:58;19.40;;;6.20;;
26050;SDS011;13825;53.496;10.020;2023-11-19T07:25:25;15.07;;;4.60;;
26050;SDS011;13825;53.496;10.020;2023-11-19T07:27:52;11.50;;;3.53;;
26050;SDS011;13825;53.496;10.020;2023-11-19T07:30:19;10.50;;;3.97;;
26050;SDS011;13825;53.496;10.020;2023-11-19T07:32:46;9.23;;;3.67;;
26050;SDS011;13825;53.496;10.020;2023-11-19T07:35:13;9.50;;;4.30;;
26050;SDS011;13825;53.496;10.020;2023-11-19T07:37:42;11.63;;;5.70;;
26050;SDS011;13825;53.496;10.020;2023-11-19T07:40:09;14.03;;;4.30;;
26050;SDS011;13825;53.496;10.020;2023-11-19T07:42:37;20.43;;;5.13;;
26050;SDS011;13825;53.496;10.020;2023-11-19T07:45:04;18.13;;;5.13;;
26050;SDS011;13825;53.496;10.020;2023-11-19T07:47:32;20.03;;;5.87;;
26050;SDS011;13825;53.496;10.020;2023-11-19T07:49:59;17.70;;;6.07;;
26050;SDS011;13825;53.496;10.020;2023-11-19T07:52:26;21.37;;;7.03;;
26050;SDS011;13825;53.496;10.020;2023-11-19T07:54:55;15.80;;;5.40;;
26050;SDS011;13825;53.496;10.020;2023-11-19T07:57:22;21.70;;;5.33;;
26050;SDS011;13825;53.496;10.020;2023-11-19T07:59:49;12.27;;;4.60;;
26050;SDS011;13825;53.496;10.020;2023-11-19T08:02:16;10.43;;;4.13;;
26050;SDS011;13825;53.496;10.020;2023-11-19T08:04:44;12.90;;;4.43;;
26050;SDS011;13825;53.496;10.020;2023-11-19T08:07:11;9.77;;;3.93;;
26050;SDS011;13825;53.496;10.020;2023-11-19T08:09:38;13.57;;;3.90;;
26050;SDS011;13825;53.496;10.020;2023-11-19T08:12:06;13.17;;;3.97;;
26050;SDS011;13825;53.496;10.020;2023-11-19T08:14:34;17.07;;;3.90;;
26050;SDS011;13825;53.496;10.020;2023-11-19T08:17:02;17.30;;;4.40;;
26050;SDS011;13825;53.496;10.020;2023-11-19T08:19:29;17.10;;;3.97;;
26050;SDS011;13825;53.496;10.020;2023-11-19T08:21:56;14.13;;;3.73;;
26050;SDS011;13825;53.496;10.020;2023-11-19T08:24:23;20.23;;;3.73;;
26050;SDS011;13825;53.496;10.020;2023-11-19T08:26:53;16.60;;;4.50;;
26050;SDS011;13825;53.496;10.020;2023-11-19T08:29:21;15.93;;;3.63;;
26050;SDS011;13825;53.496;10.020;2023-11-19T08:31:48;21.60;;;4.30;;
26050;SDS011;13825;53.496;10.020;2023-11-19T08:34:16;16.70;;;4.17;;
26050;SDS011;13825;53.496;10.020;2023-11-19T08:36:42;14.27;;;3.93;;
26050;SDS011;13825;53.496;10.020;2023-11-19T08:39:09;11.70;;;3.97;;
26050;SDS011;13825;53.496;10.020;2023-11-19T08:41:39;23.00;;;6.53;;
26050;SDS011;13825;53.496;10.020;2023-11-19T08:44:06;16.03;;;5.10;;
26050;SDS011;13825;53.496;10.020;2023-11-19T08:46:35;12.47;;;3.93;;
26050;SDS011;13825;53.496;10.020;2023-11-19T08:49:02;20.20;;;4.80;;
26050;SDS011;13825;53.496;10.020;2023-11-19T08:51:28;15.57;;;3.83;;
26050;SDS011;13825;53.496;10.020;2023-11-19T08:53:55;13.17;;;4.40;;
26050;SDS011;13825;53.496;10.020;2023-11-19T08:56:22;15.80;;;4.23;;
26050;SDS011;13825;53.496;10.020;2023-11-19T08:58:49;14.47;;;4.27;;
26050;SDS011;13825;53.496;10.020;2023-11-19T09:01:16;17.87;;;6.13;;
26050;SDS011;13825;53.496;10.020;2023-11-19T09:03:44;19.03;;;3.77;;
26050;SDS011;13825;53.496;10.020;2023-11-19T09:06:11;16.03;;;3.97;;
26050;SDS011;13825;53.496;10.020;2023-11-19T09:08:38;17.63;;;4.20;;
26050;SDS011;13825;53.496;10.020;2023-11-19T09:11:08;20.13;;;4.13;;
26050;SDS011;13825;53.496;10.020;2023-11-19T09:13:36;11.23;;;3.73;;
26050;SDS011;13825;53.496;10.020;2023-11-19T09:16:04;15.57;;;3.43;;
26050;SDS011;13825;53.496;10.020;2023-11-19T09:18:31;17.27;;;4.80;;
26050;SDS011;13825;53.496;10.020;2023-11-19T09:21:00;14.17;;;4.27;;
26050;SDS011;13825;53.496;10.020;2023-11-19T09:23:28;13.83;;;4.10;;
26050;SDS011;13825;53.496;10.020;2023-11-19T09:25:57;16.60;;;4.10;;
26050;SDS011;13825;53.496;10.020;2023-11-19T09:28:25;19.17;;;3.87;;
26050;SDS011;13825;53.496;10.020;2023-11-19T09:30:52;11.33;;;3.37;;
26050;SDS011;13825;53.496;10.020;2023-11-19T09:33:18;21.30;;;4.37;;
26050;SDS011;13825;53.496;10.020;2023-11-19T09:35:45;21.63;;;4.70;;
26050;SDS011;13825;53.496;10.020;2023-11-19T09:38:16;13.40;;;3.67;;
26050;SDS011;13825;53.496;10.020;2023-11-19T09:40:43;21.23;;;5.10;;
26050;SDS011;13825;53.496;10.020;2023-11-19T09:43:10;19.30;;;4.47;;
26050;SDS011;13825;53.496;10.020;2023-11-19T09:45:39;21.27;;;4.50;;
26050;SDS011;13825;53.496;10.020;2023-11-19T09:48:14;20.43;;;4.93;;
26050;SDS011;13825;53.496;10.020;2023-11-19T09:50:44;12.37;;;3.60;;
26050;SDS011;13825;53.496;10.020;2023-11-19T09:53:13;20.70;;;4.90;;
26050;SDS011;13825;53.496;10.020;2023-11-19T09:55:42;22.30;;;3.87;;
26050;SDS011;13825;53.496;10.020;2023-11-19T09:58:09;15.97;;;4.70;;
26050;SDS011;13825;53.496;10.020;2023-11-19T10:00:40;17.10;;;4.43;;
26050;SDS011;13825;53.496;10.020;2023-11-19T10:03:07;17.57;;;3.50;;
26050;SDS011;13825;53.496;10.020;2023-11-19T10:05:37;18.63;;;4.50;;
26050;SDS011;13825;53.496;10.020;2023-11-19T10:08:05;25.97;;;4.03;;
26050;SDS011;13825;53.496;10.020;2023-11-19T10:10:32;14.87;;;4.00;;
26050;SDS011;13825;53.496;10.020;2023-11-19T10:13:01;13.20;;;5.00;;
26050;SDS011;13825;53.496;10.020;2023-11-19T10:15:28;26.10;;;4.17;;
26050;SDS011;13825;53.496;10.020;2023-11-19T10:18:02;22.53;;;5.30;;
26050;SDS011;13825;53.496;10.020;2023-11-19T10:20:34;15.17;;;4.17;;
26050;SDS011;13825;53.496;10.020;2023-11-19T10:23:02;19.23;;;4.03;;
26050;SDS011;13825;53.496;10.020;2023-11-19T10:25:29;16.13;;;3.73;;
26050;SDS011;13825;53.496;10.020;2023-11-19T10:27:57;18.73;;;4.40;;
26050;SDS011;13825;53.496;10.020;2023-11-19T10:30:26;19.70;;;3.70;;
26050;SDS011;13825;53.496;10.020;2023-11-19T10:35:51;14.73;;;3.40;;
26050;SDS011;13825;53.496;10.020;2023-11-19T10:38:19;13.13;;;4.10;;
26050;SDS011;13825;53.496;10.020;2023-11-19T10:40:47;17.87;;;4.07;;
26050;SDS011;13825;53.496;10.020;2023-11-19T10:43:15;15.90;;;3.60;;
26050;SDS011;13825;53.496;10.020;2023-11-19T10:45:45;21.63;;;4.50;;
26050;SDS011;13825;53.496;10.020;2023-11-19T10:48:12;22.07;;;4.17;;
26050;SDS011;13825;53.496;10.020;2023-11-19T10:50:39;15.67;;;4.10;;
26050;SDS011;13825;53.496;10.020;2023-11-19T10:53:08;14.43;;;3.53;;
26050;SDS011;13825;53.496;10.020;2023-11-19T10:55:38;18.13;;;3.50;;
26050;SDS011;13825;53.496;10.020;2023-11-19T10:58:06;15.13;;;3.47;;
26050;SDS011;13825;53.496;10.020;2023-11-19T11:00:36;11.83;;;3.27;;
26050;SDS011;13825;53.496;10.020;2023-11-19T11:03:08;18.83;;;3.27;;
26050;SDS011;13825;53.496;10.020;2023-11-19T11:05:37;9.30;;;2.57;;
26050;SDS011;13825;53.496;10.020;2023-11-19T11:08:08;13.10;;;3.60;;
26050;SDS011;13825;53.496;10.020;2023-11-19T11:10:38;12.50;;;3.87;;
26050;SDS011;13825;53.496;10.020;2023-11-19T11:13:09;20.57;;;3.97;;
26050;SDS011;13825;53.496;10.020;2023-11-19T11:15:40;20.60;;;4.80;;
26050;SDS011;13825;53.496;10.020;2023-11-19T11:18:09;16.07;;;3.73;;
26050;SDS011;13825;53.496;10.020;2023-11-19T11:20:36;20.83;;;4.73;;
26050;SDS011;13825;53.496;10.020;2023-11-19T11:26:23;15.70;;;3.50;;
26050;SDS011;13825;53.496;10.020;2023-11-19T11:29:02;22.23;;;3.97;;
26050;SDS011;13825;53.496;10.020;2023-11-19T11:31:35;20.13;;;4.37;;
26050;SDS011;13825;53.496;10.020;2023-11-19T11:37:16;18.67;;;3.87;;
26050;SDS011;13825;53.496;10.020;2023-11-19T11:39:46;17.63;;;3.80;;
26050;SDS011;13825;53.496;10.020;2023-11-19T11:42:32;23.20;;;4.13;;
26050;SDS011;13825;53.496;10.020;2023-11-19T11:45:00;15.80;;;4.13;;
26050;SDS011;13825;53.496;10.020;2023-11-19T11:50:52;13.63;;;2.77;;
26050;SDS011;13825;53.496;10.020;2023-11-19T11:53:23;20.67;;;4.23;;
26050;SDS011;13825;53.496;10.020;2023-11-19T11:55:52;16.30;;;3.30;;
26050;SDS011;13825;53.496;10.020;2023-11-19T11:58:21;14.90;;;3.30;;
26050;SDS011;13825;53.496;10.020;2023-11-19T12:01:07;14.07;;;4.23;;
26050;SDS011;13825;53.496;10.020;2023-11-19T12:03:34;18.63;;;3.70;;
26050;SDS011;13825;53.496;10.020;2023-11-19T12:06:05;16.40;;;3.90;;
26050;SDS011;13825;53.496;10.020;2023-11-19T12:08:33;19.07;;;3.90;;
26050;SDS011;13825;53.496;10.020;2023-11-19T12:11:01;20.40;;;4.63;;
26050;SDS011;13825;53.496;10.020;2023-11-19T12:13:47;18.27;;;4.30;;
26050;SDS011;13825;53.496;10.020;2023-11-19T12:16:20;17.63;;;3.67;;
26050;SDS011;13825;53.496;10.020;2023-11-19T12:18:47;14.53;;;3.50;;
26050;SDS011;13825;53.496;10.020;2023-11-19T12:21:29;17.73;;;3.80;;
26050;SDS011;13825;53.496;10.020;2023-11-19T12:23:58;18.50;;;3.63;;
26050;SDS011;13825;53.496;10.020;2023-11-19T12:26:36;19.70;;;3.37;;
26050;SDS011;13825;53.496;10.020;2023-11-19T12:29:04;18.43;;;3.57;;
26050;SDS011;13825;53.496;10.020;2023-11-19T12:31:32;14.43;;;3.40;;
26050;SDS011;13825;53.496;10.020;2023-11-19T12:34:08;11.07;;;3.20;;
26050;SDS011;13825;53.496;10.020;2023-11-19T12:36:39;18.73;;;4.13;;
26050;SDS011;13825;53.496;10.020;2023-11-19T12:39:07;11.53;;;3.03;;
26050;SDS011;13825;53.496;10.020;2023-11-19T12:41:53;14.43;;;3.87;;
26050;SDS011;13825;53.496;10.020;2023-11-19T12:44:20;17.97;;;3.50;;
26050;SDS011;13825;53.496;10.020;2023-11-19T12:46:58;21.07;;;3.53;;
26050;SDS011;13825;53.496;10.020;2023-11-19T12:49:29;13.87;;;3.80;;
26050;SDS011;13825;53.496;10.020;2023-11-19T12:52:00;13.67;;;3.10;;
26050;SDS011;13825;53.496;10.020;2023-11-19T12:54:33;10.80;;;2.73;;
26050;SDS011;13825;53.496;10.020;2023-11-19T12:57:00;18.90;;;3.90;;
26050;SDS011;13825;53.496;10.020;2023-11-19T12:59:28;23.27;;;4.37;;
26050;SDS011;13825;53.496;10.020;2023-11-19T13:01:55;16.40;;;3.43;;
26050;SDS011;13825;53.496;10.020;2023-11-19T13:04:22;12.73;;;3.40;;
26050;SDS011;13825;53.496;10.020;2023-11-19T13:06:53;14.47;;;3.80;;
26050;SDS011;13825;53.496;10.020;2023-11-19T13:09:23;18.17;;;3.63;;
26050;SDS011;13825;53.496;10.020;2023-11-19T13:11:51;11.63;;;3.10;;
26050;SDS011;13825;53.496;10.020;2023-11-19T13:14:18;14.80;;;4.20;;
26050;SDS011;13825;53.496;10.020;2023-11-19T13:16:45;19.67;;;3.10;;
26050;SDS011;13825;53.496;10.020;2023-11-19T13:19:13;14.50;;;3.73;;
26050;SDS011;13825;53.496;10.020;2023-11-19T13:21:41;15.67;;;3.33;;
26050;SDS011;13825;53.496;10.020;2023-11-19T13:24:09;14.37;;;3.87;;
26050;SDS011;13825;53.496;10.020;2023-11-19T13:26:37;14.90;;;3.33;;
26050;SDS011;13825;53.496;10.020;2023-11-19T13:29:04;18.57;;;3.20;;
26050;SDS011;13825;53.496;10.020;2023-11-19T13:31:31;14.63;;;2.93;;
26050;SDS011;13825;53.496;10.020;2023-11-19T13:33:58;15.17;;;3.73;;
26050;SDS011;13825;53.496;10.020;2023-11-19T13:36:25;10.50;;;3.10;;
26050;SDS011;13825;53.496;10.020;2023-11-19T13:38:52;13.27;;;3.47;;
26050;SDS011;13825;53.496;10.020;2023-11-19T13:41:23;18.47;;;2.80;;
26050;SDS011;13825;53.496;10.020;2023-11-19T13:43:52;21.27;;;4.33;;
26050;SDS011;13825;53.496;10.020;2023-11-19T13:46:20;20.70;;;3.87;;
26050;SDS011;13825;53.496;10.020;2023-11-19T13:48:47;15.07;;;3.77;;
26050;SDS011;13825;53.496;10.020;2023-11-19T13:51:15;14.63;;;3.43;;
26050;SDS011;13825;53.496;10.020;2023-11-19T13:53:42;17.27;;;3.93;;
26050;SDS011;13825;53.496;10.020;2023-11-19T13:56:09;19.20;;;3.17;;
26050;SDS011;13825;53.496;10.020;2023-11-19T13:58:37;10.70;;;2.90;;
26050;SDS011;13825;53.496;10.020;2023-11-19T14:01:06;11.17;;;3.80;;
26050;SDS011;13825;53.496;10.020;2023-11-19T14:03:34;9.17;;;3.43;;
26050;SDS011;13825;53.496;10.020;2023-11-19T14:06:01;18.40;;;4.57;;
26050;SDS011;13825;53.496;10.020;2023-11-19T14:08:28;8.80;;;3.63;;
26050;SDS011;13825;53.496;10.020;2023-11-19T14:10:55;13.63;;;3.50;;
26050;SDS011;13825;53.496;10.020;2023-11-19T14:13:22;14.90;;;4.20;;
26050;SDS011;13825;53.496;10.020;2023-11-19T14:15:50;16.60;;;4.23;;
26050;SDS011;13825;53.496;10.020;2023-11-19T14:18:18;13.73;;;3.80;;
26050;SDS011;13825;53.496;10.020;2023-11-19T14:20:45;15.10;;;4.63;;
26050;SDS011;13825;53.496;10.020;2023-11-19T14:23:12;15.97;;;3.53;;
26050;SDS011;13825;53.496;10.020;2023-11-19T14:25:39;16.20;;;4.27;;
26050;SDS011;13825;53.496;10.020;2023-11-19T14:28:06;15.80;;;4.03;;
26050;SDS011;13825;53.496;10.020;2023-11-19T14:30:33;17.57;;;3.00;;
26050;SDS011;13825;53.496;10.020;2023-11-19T14:33:00;17.00;;;3.50;;
26050;SDS011;13825;53.496;10.020;2023-11-19T14:35:29;13.50;;;4.33;;
26050;SDS011;13825;53.496;10.020;2023-11-19T14:37:57;13.73;;;3.53;;
26050;SDS011;13825;53.496;10.020;2023-11-19T14:40:24;11.53;;;3.60;;
26050;SDS011;13825;53.496;10.020;2023-11-19T14:42:52;10.87;;;3.07;;
26050;SDS011;13825;53.496;10.020;2023-11-19T14:45:19;11.37;;;3.20;;